Aeroporto :
LOGIN :

Iscrizione | Disclaimer

   EN    FR    IT 

 










Sommario :    VFR   VFR Marginale   IFR   IFR Intensivo   IFR Molto Intensivo
Visibilità : 
Base nubi : 
>= 8 km
>= 3000ft
5 / 8 km
1000 / 3000 ft
1500m / 5 km
500 / 1000 ft
800 / 1500m
200 / 500 ft
< 800m
< 200 ft
Simboli :   Temporali  Nebbia  Neve Forte  Precipitazioni Forti  Vento > 20 kt
SIGMETs :   Varie  Temporali  Ghiacco  Turbolenza  Onda orograficha  Ceneri Vulcaniche






- Altitudine del aeroporto : 299 ft
- Codice IATA : EDM


LFRI - La Roche Sur Yon - Les Ajoncs

ULTIMO METAR :
  • 210030Z AUTO 30002KT CAVOK 03/03 Q1030

METARs OBSOLETI :
  • 210000Z AUTO 30002KT 9999 3100 NSC 03/03 Q1030
  • 202330Z AUTO 28003KT 4000 1600 R28/1200U BR NSC 04/03 Q1030
  • 202300Z AUTO 24001KT 9999 1300 R28/1700D NSC 05/04 Q1030
  • 202230Z AUTO 24002KT CAVOK 05/05 Q1029
  • 202200Z AUTO 24002KT CAVOK 05/05 Q1029

TAF TAF LFRI
Valido dal 20 a 18 ore il 21 a 18 ore UTC


201700Z 2018/2118 30015G25KT 9999 SCT020 SCT040
BECMG 2018/2020 30005KT
TEMPO 2103/2108 3000 BR
PROB40
TEMPO 2103/2108 0500 FG VV///



MetMap, La meteo Aeronautica in un colpo d'occhio ! - Copyright ORBIFLY Dicembre 2007 - Disclaimer

ORBIFLY MET'MAP TEAM :

Programmazione e sviluppo : Alexandra Zaïnal
Concezione : Baudouin d'Aumeries
Aiuto per la programmazione : Marc-Olivier Méhu
Supporto tecnico e logistico : Manuel Goepfert
Aiuto per la traduzione : Arnaldo La Scala

Contatto : metmap@orbifly.com




FONTI E CREDITI :

   NOAA